sensor_id;sensor_type;location;lat;lon;timestamp;pressure;altitude;pressure_sealevel;temperature
65569;BMP180;52211;50.154;8.682;2023-02-12T00:01:51;102134.00;;;13.10
65569;BMP180;52211;50.154;8.682;2023-02-12T00:04:23;102148.00;;;13.10
65569;BMP180;52211;50.154;8.682;2023-02-12T00:06:49;102151.00;;;13.10
65569;BMP180;52211;50.154;8.682;2023-02-12T00:09:19;102137.00;;;13.10
65569;BMP180;52211;50.154;8.682;2023-02-12T00:11:48;102139.00;;;13.10
65569;BMP180;52211;50.154;8.682;2023-02-12T00:14:20;102144.00;;;13.10
65569;BMP180;52211;50.154;8.682;2023-02-12T00:16:49;102145.00;;;13.10
65569;BMP180;52211;50.154;8.682;2023-02-12T00:19:16;102143.00;;;13.10
65569;BMP180;52211;50.154;8.682;2023-02-12T00:21:45;102142.00;;;13.10
65569;BMP180;52211;50.154;8.682;2023-02-12T00:24:20;102138.00;;;13.10
65569;BMP180;52211;50.154;8.682;2023-02-12T00:26:50;102136.00;;;13.10
65569;BMP180;52211;50.154;8.682;2023-02-12T00:29:17;102135.00;;;13.10
65569;BMP180;52211;50.154;8.682;2023-02-12T00:31:44;102144.00;;;13.10
65569;BMP180;52211;50.154;8.682;2023-02-12T00:34:18;102141.00;;;13.10
65569;BMP180;52211;50.154;8.682;2023-02-12T00:36:46;102144.00;;;13.10
65569;BMP180;52211;50.154;8.682;2023-02-12T00:39:15;102148.00;;;13.10
65569;BMP180;52211;50.154;8.682;2023-02-12T00:41:42;102142.00;;;13.10
65569;BMP180;52211;50.154;8.682;2023-02-12T00:44:12;102142.00;;;13.10
65569;BMP180;52211;50.154;8.682;2023-02-12T00:46:43;102138.00;;;13.10
65569;BMP180;52211;50.154;8.682;2023-02-12T00:49:12;102139.00;;;13.10
65569;BMP180;52211;50.154;8.682;2023-02-12T00:51:42;102136.00;;;13.10
65569;BMP180;52211;50.154;8.682;2023-02-12T00:54:11;102137.00;;;13.10
65569;BMP180;52211;50.154;8.682;2023-02-12T00:56:38;102132.00;;;13.10
65569;BMP180;52211;50.154;8.682;2023-02-12T00:59:07;102138.00;;;13.10
65569;BMP180;52211;50.154;8.682;2023-02-12T01:01:36;102131.00;;;13.10
65569;BMP180;52211;50.154;8.682;2023-02-12T01:04:06;102137.00;;;13.10
65569;BMP180;52211;50.154;8.682;2023-02-12T01:06:35;102133.00;;;13.10
65569;BMP180;52211;50.154;8.682;2023-02-12T01:09:04;102134.00;;;13.10
65569;BMP180;52211;50.154;8.682;2023-02-12T01:11:33;102136.00;;;13.10
65569;BMP180;52211;50.154;8.682;2023-02-12T01:14:03;102140.00;;;13.10
65569;BMP180;52211;50.154;8.682;2023-02-12T01:16:35;102133.00;;;13.10
65569;BMP180;52211;50.154;8.682;2023-02-12T01:19:07;102129.00;;;13.10
65569;BMP180;52211;50.154;8.682;2023-02-12T01:21:34;102137.00;;;13.10
65569;BMP180;52211;50.154;8.682;2023-02-12T01:24:01;102138.00;;;13.10
65569;BMP180;52211;50.154;8.682;2023-02-12T01:26:30;102134.00;;;13.10
65569;BMP180;52211;50.154;8.682;2023-02-12T01:29:01;102139.00;;;13.10
65569;BMP180;52211;50.154;8.682;2023-02-12T01:31:35;102135.00;;;13.00
65569;BMP180;52211;50.154;8.682;2023-02-12T01:34:07;102137.00;;;13.10
65569;BMP180;52211;50.154;8.682;2023-02-12T01:36:34;102144.00;;;13.10
65569;BMP180;52211;50.154;8.682;2023-02-12T01:39:06;102140.00;;;13.10
65569;BMP180;52211;50.154;8.682;2023-02-12T01:41:43;102142.00;;;13.00
65569;BMP180;52211;50.154;8.682;2023-02-12T01:44:24;102136.00;;;13.00
65569;BMP180;52211;50.154;8.682;2023-02-12T01:47:03;102135.00;;;13.00
65569;BMP180;52211;50.154;8.682;2023-02-12T01:49:44;102137.00;;;13.00
65569;BMP180;52211;50.154;8.682;2023-02-12T01:52:19;102133.00;;;13.00
65569;BMP180;52211;50.154;8.682;2023-02-12T01:54:55;102140.00;;;13.00
65569;BMP180;52211;50.154;8.682;2023-02-12T01:57:31;102140.00;;;13.00
65569;BMP180;52211;50.154;8.682;2023-02-12T02:00:08;102136.00;;;13.00
65569;BMP180;52211;50.154;8.682;2023-02-12T02:02:45;102130.00;;;12.90
65569;BMP180;52211;50.154;8.682;2023-02-12T02:08:04;102149.00;;;13.00
65569;BMP180;52211;50.154;8.682;2023-02-12T02:10:33;102149.00;;;12.90
65569;BMP180;52211;50.154;8.682;2023-02-12T02:13:01;102144.00;;;12.90
65569;BMP180;52211;50.154;8.682;2023-02-12T02:15:50;102142.00;;;12.90
65569;BMP180;52211;50.154;8.682;2023-02-12T02:18:52;102133.00;;;12.90
65569;BMP180;52211;50.154;8.682;2023-02-12T02:21:45;102138.00;;;12.90
65569;BMP180;52211;50.154;8.682;2023-02-12T02:24:46;102127.00;;;12.90
65569;BMP180;52211;50.154;8.682;2023-02-12T02:27:41;102122.00;;;12.80
65569;BMP180;52211;50.154;8.682;2023-02-12T02:30:53;102130.00;;;12.80
65569;BMP180;52211;50.154;8.682;2023-02-12T02:33:52;102132.00;;;12.80
65569;BMP180;52211;50.154;8.682;2023-02-12T02:39:42;102126.00;;;12.80
65569;BMP180;52211;50.154;8.682;2023-02-12T02:42:28;102121.00;;;12.80
65569;BMP180;52211;50.154;8.682;2023-02-12T02:45:11;102119.00;;;12.80
65569;BMP180;52211;50.154;8.682;2023-02-12T02:47:51;102117.00;;;12.80
65569;BMP180;52211;50.154;8.682;2023-02-12T02:50:24;102121.00;;;12.80
65569;BMP180;52211;50.154;8.682;2023-02-12T02:53:03;102120.00;;;12.90
65569;BMP180;52211;50.154;8.682;2023-02-12T02:55:44;102114.00;;;12.80
65569;BMP180;52211;50.154;8.682;2023-02-12T02:58:23;102121.00;;;12.80
65569;BMP180;52211;50.154;8.682;2023-02-12T03:01:13;102122.00;;;12.80
65569;BMP180;52211;50.154;8.682;2023-02-12T03:04:01;102119.00;;;12.80
65569;BMP180;52211;50.154;8.682;2023-02-12T03:06:54;102119.00;;;12.80
65569;BMP180;52211;50.154;8.682;2023-02-12T03:09:28;102128.00;;;12.90
65569;BMP180;52211;50.154;8.682;2023-02-12T03:12:09;102137.00;;;12.90
65569;BMP180;52211;50.154;8.682;2023-02-12T03:14:44;102140.00;;;12.90
65569;BMP180;52211;50.154;8.682;2023-02-12T03:17:40;102140.00;;;12.90
65569;BMP180;52211;50.154;8.682;2023-02-12T03:20:32;102128.00;;;12.80
65569;BMP180;52211;50.154;8.682;2023-02-12T03:23:10;102137.00;;;12.90
65569;BMP180;52211;50.154;8.682;2023-02-12T03:26:15;102127.00;;;12.90
65569;BMP180;52211;50.154;8.682;2023-02-12T03:28:49;102125.00;;;12.90
65569;BMP180;52211;50.154;8.682;2023-02-12T03:31:33;102133.00;;;12.90
65569;BMP180;52211;50.154;8.682;2023-02-12T03:34:49;102127.00;;;12.80
65569;BMP180;52211;50.154;8.682;2023-02-12T03:38:23;102129.00;;;12.80
65569;BMP180;52211;50.154;8.682;2023-02-12T03:41:29;102127.00;;;12.80
65569;BMP180;52211;50.154;8.682;2023-02-12T03:44:14;102136.00;;;12.90
65569;BMP180;52211;50.154;8.682;2023-02-12T03:47:01;102139.00;;;12.90
65569;BMP180;52211;50.154;8.682;2023-02-12T03:52:17;102139.00;;;12.90
65569;BMP180;52211;50.154;8.682;2023-02-12T03:54:47;102142.00;;;12.90
65569;BMP180;52211;50.154;8.682;2023-02-12T03:57:23;102144.00;;;12.90
65569;BMP180;52211;50.154;8.682;2023-02-12T03:59:51;102145.00;;;12.90
65569;BMP180;52211;50.154;8.682;2023-02-12T04:02:20;102146.00;;;12.90
65569;BMP180;52211;50.154;8.682;2023-02-12T04:04:49;102147.00;;;12.90
65569;BMP180;52211;50.154;8.682;2023-02-12T04:07:17;102147.00;;;12.90
65569;BMP180;52211;50.154;8.682;2023-02-12T04:09:47;102140.00;;;12.90
65569;BMP180;52211;50.154;8.682;2023-02-12T04:12:33;102144.00;;;12.90
65569;BMP180;52211;50.154;8.682;2023-02-12T04:16:01;102150.00;;;12.90
65569;BMP180;52211;50.154;8.682;2023-02-12T04:18:43;102156.00;;;12.90
65569;BMP180;52211;50.154;8.682;2023-02-12T04:21:58;102153.00;;;12.90
65569;BMP180;52211;50.154;8.682;2023-02-12T04:33:34;102163.00;;;12.90
65569;BMP180;52211;50.154;8.682;2023-02-12T04:36:20;102164.00;;;12.90
65569;BMP180;52211;50.154;8.682;2023-02-12T04:39:10;102167.00;;;12.90
65569;BMP180;52211;50.154;8.682;2023-02-12T04:41:40;102176.00;;;12.90
65569;BMP180;52211;50.154;8.682;2023-02-12T04:44:32;102173.00;;;12.90
65569;BMP180;52211;50.154;8.682;2023-02-12T04:47:01;102175.00;;;12.90
65569;BMP180;52211;50.154;8.682;2023-02-12T04:49:28;102168.00;;;12.90
65569;BMP180;52211;50.154;8.682;2023-02-12T04:51:55;102178.00;;;12.90
65569;BMP180;52211;50.154;8.682;2023-02-12T04:54:23;102176.00;;;12.90
65569;BMP180;52211;50.154;8.682;2023-02-12T04:56:50;102171.00;;;12.90
65569;BMP180;52211;50.154;8.682;2023-02-12T04:59:22;102179.00;;;12.90
65569;BMP180;52211;50.154;8.682;2023-02-12T05:01:52;102180.00;;;12.90
65569;BMP180;52211;50.154;8.682;2023-02-12T05:04:21;102178.00;;;12.90
65569;BMP180;52211;50.154;8.682;2023-02-12T05:06:52;102178.00;;;12.90
65569;BMP180;52211;50.154;8.682;2023-02-12T05:09:22;102172.00;;;12.90
65569;BMP180;52211;50.154;8.682;2023-02-12T05:11:52;102172.00;;;12.80
65569;BMP180;52211;50.154;8.682;2023-02-12T05:14:24;102162.00;;;12.80
65569;BMP180;52211;50.154;8.682;2023-02-12T05:16:53;102168.00;;;12.80
65569;BMP180;52211;50.154;8.682;2023-02-12T05:19:22;102166.00;;;12.80
65569;BMP180;52211;50.154;8.682;2023-02-12T05:21:50;102161.00;;;12.80
65569;BMP180;52211;50.154;8.682;2023-02-12T05:24:17;102161.00;;;12.80
65569;BMP180;52211;50.154;8.682;2023-02-12T05:26:46;102171.00;;;12.90
65569;BMP180;52211;50.154;8.682;2023-02-12T05:29:13;102168.00;;;12.90
65569;BMP180;52211;50.154;8.682;2023-02-12T05:31:44;102164.00;;;12.90
65569;BMP180;52211;50.154;8.682;2023-02-12T05:34:15;102162.00;;;12.80
65569;BMP180;52211;50.154;8.682;2023-02-12T05:36:47;102156.00;;;12.80
65569;BMP180;52211;50.154;8.682;2023-02-12T05:39:13;102165.00;;;12.80
65569;BMP180;52211;50.154;8.682;2023-02-12T05:41:43;102162.00;;;12.90
65569;BMP180;52211;50.154;8.682;2023-02-12T05:44:10;102164.00;;;12.80
65569;BMP180;52211;50.154;8.682;2023-02-12T05:46:42;102162.00;;;12.80
65569;BMP180;52211;50.154;8.682;2023-02-12T05:49:21;102180.00;;;12.80
65569;BMP180;52211;50.154;8.682;2023-02-12T05:51:48;102163.00;;;12.90
65569;BMP180;52211;50.154;8.682;2023-02-12T05:54:15;102176.00;;;12.90
65569;BMP180;52211;50.154;8.682;2023-02-12T05:56:46;102169.00;;;12.90
65569;BMP180;52211;50.154;8.682;2023-02-12T05:59:21;102173.00;;;12.90
65569;BMP180;52211;50.154;8.682;2023-02-12T06:01:50;102178.00;;;12.90
65569;BMP180;52211;50.154;8.682;2023-02-12T06:04:24;102178.00;;;12.90
65569;BMP180;52211;50.154;8.682;2023-02-12T06:06:59;102187.00;;;12.90
65569;BMP180;52211;50.154;8.682;2023-02-12T06:09:26;102182.00;;;12.90
65569;BMP180;52211;50.154;8.682;2023-02-12T06:11:53;102173.00;;;12.90
65569;BMP180;52211;50.154;8.682;2023-02-12T06:14:23;102180.00;;;12.90
65569;BMP180;52211;50.154;8.682;2023-02-12T06:16:53;102188.00;;;12.90
65569;BMP180;52211;50.154;8.682;2023-02-12T06:19:20;102184.00;;;12.80
65569;BMP180;52211;50.154;8.682;2023-02-12T06:21:50;102188.00;;;12.80
65569;BMP180;52211;50.154;8.682;2023-02-12T06:24:19;102190.00;;;12.80
65569;BMP180;52211;50.154;8.682;2023-02-12T06:26:49;102190.00;;;12.80
65569;BMP180;52211;50.154;8.682;2023-02-12T06:29:22;102200.00;;;12.80
65569;BMP180;52211;50.154;8.682;2023-02-12T06:31:49;102199.00;;;12.80
65569;BMP180;52211;50.154;8.682;2023-02-12T06:34:18;102195.00;;;12.80
65569;BMP180;52211;50.154;8.682;2023-02-12T06:36:48;102206.00;;;12.80
65569;BMP180;52211;50.154;8.682;2023-02-12T06:39:16;102209.00;;;12.80
65569;BMP180;52211;50.154;8.682;2023-02-12T06:41:43;102213.00;;;12.80
65569;BMP180;52211;50.154;8.682;2023-02-12T06:44:12;102213.00;;;12.80
65569;BMP180;52211;50.154;8.682;2023-02-12T06:46:41;102211.00;;;12.80
65569;BMP180;52211;50.154;8.682;2023-02-12T06:49:11;102226.00;;;12.80
65569;BMP180;52211;50.154;8.682;2023-02-12T06:51:41;102221.00;;;12.80
65569;BMP180;52211;50.154;8.682;2023-02-12T06:54:19;102225.00;;;12.80
65569;BMP180;52211;50.154;8.682;2023-02-12T06:56:53;102223.00;;;12.80
65569;BMP180;52211;50.154;8.682;2023-02-12T06:59:22;102229.00;;;12.90
65569;BMP180;52211;50.154;8.682;2023-02-12T07:01:54;102226.00;;;12.90
65569;BMP180;52211;50.154;8.682;2023-02-12T07:04:23;102224.00;;;12.90
65569;BMP180;52211;50.154;8.682;2023-02-12T07:06:50;102229.00;;;12.90
65569;BMP180;52211;50.154;8.682;2023-02-12T07:09:19;102223.00;;;12.90
65569;BMP180;52211;50.154;8.682;2023-02-12T07:11:49;102226.00;;;12.80
65569;BMP180;52211;50.154;8.682;2023-02-12T07:14:18;102231.00;;;12.90
65569;BMP180;52211;50.154;8.682;2023-02-12T07:16:50;102230.00;;;12.80
65569;BMP180;52211;50.154;8.682;2023-02-12T07:19:31;102236.00;;;12.80
65569;BMP180;52211;50.154;8.682;2023-02-12T07:21:58;102234.00;;;12.80
65569;BMP180;52211;50.154;8.682;2023-02-12T07:24:27;102232.00;;;12.80
65569;BMP180;52211;50.154;8.682;2023-02-12T07:26:56;102233.00;;;12.80
65569;BMP180;52211;50.154;8.682;2023-02-12T07:29:26;102238.00;;;12.80
65569;BMP180;52211;50.154;8.682;2023-02-12T07:31:52;102237.00;;;12.80
65569;BMP180;52211;50.154;8.682;2023-02-12T07:34:22;102242.00;;;12.80
65569;BMP180;52211;50.154;8.682;2023-02-12T07:36:51;102245.00;;;12.80
65569;BMP180;52211;50.154;8.682;2023-02-12T07:39:20;102240.00;;;12.80
65569;BMP180;52211;50.154;8.682;2023-02-12T07:41:47;102245.00;;;12.80
65569;BMP180;52211;50.154;8.682;2023-02-12T07:44:18;102247.00;;;12.80
65569;BMP180;52211;50.154;8.682;2023-02-12T07:46:48;102254.00;;;12.80
65569;BMP180;52211;50.154;8.682;2023-02-12T07:49:20;102247.00;;;12.80
65569;BMP180;52211;50.154;8.682;2023-02-12T07:51:50;102246.00;;;12.80
65569;BMP180;52211;50.154;8.682;2023-02-12T07:54:19;102246.00;;;12.80
65569;BMP180;52211;50.154;8.682;2023-02-12T07:56:50;102248.00;;;12.80
65569;BMP180;52211;50.154;8.682;2023-02-12T07:59:18;102252.00;;;12.70
65569;BMP180;52211;50.154;8.682;2023-02-12T08:01:50;102254.00;;;12.70
65569;BMP180;52211;50.154;8.682;2023-02-12T08:04:25;102258.00;;;12.80
65569;BMP180;52211;50.154;8.682;2023-02-12T08:06:54;102256.00;;;12.80
65569;BMP180;52211;50.154;8.682;2023-02-12T08:09:27;102265.00;;;12.80
65569;BMP180;52211;50.154;8.682;2023-02-12T08:11:58;102264.00;;;12.80
65569;BMP180;52211;50.154;8.682;2023-02-12T08:14:30;102266.00;;;12.90
65569;BMP180;52211;50.154;8.682;2023-02-12T08:17:02;102269.00;;;12.90
65569;BMP180;52211;50.154;8.682;2023-02-12T08:19:34;102267.00;;;12.90
65569;BMP180;52211;50.154;8.682;2023-02-12T08:22:03;102274.00;;;12.90
65569;BMP180;52211;50.154;8.682;2023-02-12T08:24:37;102272.00;;;12.90
65569;BMP180;52211;50.154;8.682;2023-02-12T08:27:06;102276.00;;;13.00
65569;BMP180;52211;50.154;8.682;2023-02-12T08:29:33;102279.00;;;13.00
65569;BMP180;52211;50.154;8.682;2023-02-12T08:32:02;102278.00;;;13.00
65569;BMP180;52211;50.154;8.682;2023-02-12T08:34:36;102275.00;;;13.00
65569;BMP180;52211;50.154;8.682;2023-02-12T08:37:05;102280.00;;;13.00
65569;BMP180;52211;50.154;8.682;2023-02-12T08:39:33;102281.00;;;13.10
65569;BMP180;52211;50.154;8.682;2023-02-12T08:42:00;102282.00;;;13.10
65569;BMP180;52211;50.154;8.682;2023-02-12T08:44:32;102283.00;;;13.10
65569;BMP180;52211;50.154;8.682;2023-02-12T08:46:59;102279.00;;;13.20
65569;BMP180;52211;50.154;8.682;2023-02-12T08:49:28;102273.00;;;13.20
65569;BMP180;52211;50.154;8.682;2023-02-12T08:51:58;102278.00;;;13.30
65569;BMP180;52211;50.154;8.682;2023-02-12T08:54:29;102283.00;;;13.30
65569;BMP180;52211;50.154;8.682;2023-02-12T08:57:01;102285.00;;;13.40
65569;BMP180;52211;50.154;8.682;2023-02-12T08:59:33;102286.00;;;13.40
65569;BMP180;52211;50.154;8.682;2023-02-12T09:02:08;102291.00;;;13.40
65569;BMP180;52211;50.154;8.682;2023-02-12T09:04:38;102287.00;;;13.40
65569;BMP180;52211;50.154;8.682;2023-02-12T09:07:11;102289.00;;;13.40
65569;BMP180;52211;50.154;8.682;2023-02-12T09:09:43;102291.00;;;13.50
65569;BMP180;52211;50.154;8.682;2023-02-12T09:12:10;102289.00;;;13.50
65569;BMP180;52211;50.154;8.682;2023-02-12T09:14:37;102288.00;;;13.60
65569;BMP180;52211;50.154;8.682;2023-02-12T09:17:06;102288.00;;;13.60
65569;BMP180;52211;50.154;8.682;2023-02-12T09:19:36;102299.00;;;13.60
65569;BMP180;52211;50.154;8.682;2023-02-12T09:22:05;102284.00;;;13.60
65569;BMP180;52211;50.154;8.682;2023-02-12T09:24:38;102296.00;;;13.70
65569;BMP180;52211;50.154;8.682;2023-02-12T09:27:10;102298.00;;;13.70
65569;BMP180;52211;50.154;8.682;2023-02-12T09:29:39;102304.00;;;13.70
65569;BMP180;52211;50.154;8.682;2023-02-12T09:32:08;102309.00;;;13.70
65569;BMP180;52211;50.154;8.682;2023-02-12T09:34:36;102303.00;;;13.70
65569;BMP180;52211;50.154;8.682;2023-02-12T09:37:02;102299.00;;;13.70
65569;BMP180;52211;50.154;8.682;2023-02-12T09:39:34;102302.00;;;13.70
65569;BMP180;52211;50.154;8.682;2023-02-12T09:45:26;102296.00;;;13.80
65569;BMP180;52211;50.154;8.682;2023-02-12T09:48:17;102298.00;;;13.80
65569;BMP180;52211;50.154;8.682;2023-02-12T09:50:55;102302.00;;;13.80
65569;BMP180;52211;50.154;8.682;2023-02-12T09:53:30;102304.00;;;13.80
65569;BMP180;52211;50.154;8.682;2023-02-12T09:55:57;102301.00;;;13.90
65569;BMP180;52211;50.154;8.682;2023-02-12T09:59:06;102300.00;;;13.90
65569;BMP180;52211;50.154;8.682;2023-02-12T10:01:36;102295.00;;;13.90
65569;BMP180;52211;50.154;8.682;2023-02-12T10:04:04;102303.00;;;14.00
65569;BMP180;52211;50.154;8.682;2023-02-12T10:16:52;102299.00;;;14.00
65569;BMP180;52211;50.154;8.682;2023-02-12T10:22:53;102306.00;;;14.10
65569;BMP180;52211;50.154;8.682;2023-02-12T10:25:32;102307.00;;;14.10
65569;BMP180;52211;50.154;8.682;2023-02-12T10:28:11;102301.00;;;14.10
65569;BMP180;52211;50.154;8.682;2023-02-12T10:30:56;102303.00;;;14.10
65569;BMP180;52211;50.154;8.682;2023-02-12T10:33:43;102303.00;;;14.20
65569;BMP180;52211;50.154;8.682;2023-02-12T10:36:44;102303.00;;;14.20
65569;BMP180;52211;50.154;8.682;2023-02-12T10:39:27;102294.00;;;14.30
65569;BMP180;52211;50.154;8.682;2023-02-12T10:42:02;102295.00;;;14.30
65569;BMP180;52211;50.154;8.682;2023-02-12T10:44:33;102295.00;;;14.40
65569;BMP180;52211;50.154;8.682;2023-02-12T10:47:01;102297.00;;;14.40
65569;BMP180;52211;50.154;8.682;2023-02-12T10:49:32;102292.00;;;14.50
65569;BMP180;52211;50.154;8.682;2023-02-12T10:52:12;102284.00;;;14.50
65569;BMP180;52211;50.154;8.682;2023-02-12T10:54:48;102284.00;;;14.50
65569;BMP180;52211;50.154;8.682;2023-02-12T10:57:27;102280.00;;;14.50
65569;BMP180;52211;50.154;8.682;2023-02-12T11:03:26;102275.00;;;14.60
65569;BMP180;52211;50.154;8.682;2023-02-12T11:06:15;102271.00;;;14.60
65569;BMP180;52211;50.154;8.682;2023-02-12T11:08:43;102264.00;;;14.70
65569;BMP180;52211;50.154;8.682;2023-02-12T11:11:20;102269.00;;;14.80
65569;BMP180;52211;50.154;8.682;2023-02-12T11:14:15;102256.00;;;14.80
65569;BMP180;52211;50.154;8.682;2023-02-12T11:16:53;102249.00;;;14.90
65569;BMP180;52211;50.154;8.682;2023-02-12T11:19:27;102252.00;;;15.00
65569;BMP180;52211;50.154;8.682;2023-02-12T11:22:13;102256.00;;;15.00
65569;BMP180;52211;50.154;8.682;2023-02-12T11:24:59;102249.00;;;15.00
65569;BMP180;52211;50.154;8.682;2023-02-12T11:27:32;102250.00;;;15.10
65569;BMP180;52211;50.154;8.682;2023-02-12T11:30:20;102257.00;;;15.10
65569;BMP180;52211;50.154;8.682;2023-02-12T11:32:47;102252.00;;;15.20
65569;BMP180;52211;50.154;8.682;2023-02-12T11:37:57;102253.00;;;15.20
65569;BMP180;52211;50.154;8.682;2023-02-12T11:40:31;102251.00;;;15.20
65569;BMP180;52211;50.154;8.682;2023-02-12T11:43:18;102241.00;;;15.20
65569;BMP180;52211;50.154;8.682;2023-02-12T11:45:53;102240.00;;;15.30
65569;BMP180;52211;50.154;8.682;2023-02-12T11:48:36;102242.00;;;15.30
65569;BMP180;52211;50.154;8.682;2023-02-12T11:51:08;102237.00;;;15.30
65569;BMP180;52211;50.154;8.682;2023-02-12T11:53:50;102232.00;;;15.30
65569;BMP180;52211;50.154;8.682;2023-02-12T11:56:23;102232.00;;;15.40
65569;BMP180;52211;50.154;8.682;2023-02-12T11:58:51;102223.00;;;15.40
65569;BMP180;52211;50.154;8.682;2023-02-12T12:01:31;102224.00;;;15.40
65569;BMP180;52211;50.154;8.682;2023-02-12T12:04:13;102223.00;;;15.40
65569;BMP180;52211;50.154;8.682;2023-02-12T12:09:53;102217.00;;;15.50
65569;BMP180;52211;50.154;8.682;2023-02-12T12:15:21;102216.00;;;15.60
65569;BMP180;52211;50.154;8.682;2023-02-12T12:18:48;102208.00;;;15.70
65569;BMP180;52211;50.154;8.682;2023-02-12T12:21:57;102210.00;;;15.80
65569;BMP180;52211;50.154;8.682;2023-02-12T12:34:06;102193.00;;;16.10
65569;BMP180;52211;50.154;8.682;2023-02-12T12:43:10;102192.00;;;16.30
65569;BMP180;52211;50.154;8.682;2023-02-12T12:55:02;102174.00;;;16.60
65569;BMP180;52211;50.154;8.682;2023-02-12T13:24:44;102160.00;;;20.40
65569;BMP180;52211;50.154;8.682;2023-02-12T13:27:39;102159.00;;;20.60
65569;BMP180;52211;50.154;8.682;2023-02-12T13:30:29;102157.00;;;21.00
65569;BMP180;52211;50.154;8.682;2023-02-12T13:33:20;102158.00;;;21.40
65569;BMP180;52211;50.154;8.682;2023-02-12T13:36:00;102158.00;;;21.80
65569;BMP180;52211;50.154;8.682;2023-02-12T13:38:41;102162.00;;;22.10
65569;BMP180;52211;50.154;8.682;2023-02-12T13:41:12;102157.00;;;22.50
65569;BMP180;52211;50.154;8.682;2023-02-12T13:47:10;102155.00;;;23.20
65569;BMP180;52211;50.154;8.682;2023-02-12T13:52:46;102159.00;;;23.90
65569;BMP180;52211;50.154;8.682;2023-02-12T13:55:48;102145.00;;;24.00
65569;BMP180;52211;50.154;8.682;2023-02-12T14:01:43;102149.00;;;23.40
65569;BMP180;52211;50.154;8.682;2023-02-12T14:07:03;102148.00;;;22.70
65569;BMP180;52211;50.154;8.682;2023-02-12T14:10:02;102148.00;;;22.20
65569;BMP180;52211;50.154;8.682;2023-02-12T14:12:36;102142.00;;;21.90
65569;BMP180;52211;50.154;8.682;2023-02-12T14:15:34;102146.00;;;21.50
65569;BMP180;52211;50.154;8.682;2023-02-12T14:18:30;102143.00;;;21.10
65569;BMP180;52211;50.154;8.682;2023-02-12T14:23:43;102153.00;;;20.50
65569;BMP180;52211;50.154;8.682;2023-02-12T14:26:25;102147.00;;;20.00
65569;BMP180;52211;50.154;8.682;2023-02-12T14:29:05;102148.00;;;19.70
65569;BMP180;52211;50.154;8.682;2023-02-12T14:31:43;102146.00;;;19.40
65569;BMP180;52211;50.154;8.682;2023-02-12T14:36:40;102141.00;;;18.80
65569;BMP180;52211;50.154;8.682;2023-02-12T14:41:49;102144.00;;;18.40
65569;BMP180;52211;50.154;8.682;2023-02-12T14:52:17;102151.00;;;17.90
65569;BMP180;52211;50.154;8.682;2023-02-12T14:54:58;102132.00;;;17.80
65569;BMP180;52211;50.154;8.682;2023-02-12T15:05:37;102144.00;;;17.40
65569;BMP180;52211;50.154;8.682;2023-02-12T15:11:27;102138.00;;;17.20
65569;BMP180;52211;50.154;8.682;2023-02-12T15:17:14;102147.00;;;17.00
65569;BMP180;52211;50.154;8.682;2023-02-12T15:22:29;102134.00;;;16.90
65569;BMP180;52211;50.154;8.682;2023-02-12T15:25:32;102133.00;;;16.80
65569;BMP180;52211;50.154;8.682;2023-02-12T15:28:19;102133.00;;;16.70
65569;BMP180;52211;50.154;8.682;2023-02-12T15:30:50;102133.00;;;16.70
65569;BMP180;52211;50.154;8.682;2023-02-12T15:33:29;102126.00;;;16.70
65569;BMP180;52211;50.154;8.682;2023-02-12T15:36:03;102132.00;;;16.60
65569;BMP180;52211;50.154;8.682;2023-02-12T15:38:36;102128.00;;;16.50
65569;BMP180;52211;50.154;8.682;2023-02-12T15:41:24;102130.00;;;16.40
65569;BMP180;52211;50.154;8.682;2023-02-12T15:43:58;102122.00;;;16.40
65569;BMP180;52211;50.154;8.682;2023-02-12T15:46:25;102122.00;;;16.30
65569;BMP180;52211;50.154;8.682;2023-02-12T15:48:52;102130.00;;;16.20
65569;BMP180;52211;50.154;8.682;2023-02-12T15:51:33;102127.00;;;16.20
65569;BMP180;52211;50.154;8.682;2023-02-12T15:54:05;102133.00;;;16.20
65569;BMP180;52211;50.154;8.682;2023-02-12T15:56:40;102125.00;;;16.10
65569;BMP180;52211;50.154;8.682;2023-02-12T15:59:20;102127.00;;;16.10
65569;BMP180;52211;50.154;8.682;2023-02-12T16:01:57;102116.00;;;16.00
65569;BMP180;52211;50.154;8.682;2023-02-12T16:04:33;102106.00;;;16.00
65569;BMP180;52211;50.154;8.682;2023-02-12T16:07:10;102113.00;;;16.00
65569;BMP180;52211;50.154;8.682;2023-02-12T16:09:40;102103.00;;;15.90
65569;BMP180;52211;50.154;8.682;2023-02-12T16:12:16;102103.00;;;15.90
65569;BMP180;52211;50.154;8.682;2023-02-12T16:14:52;102106.00;;;15.80
65569;BMP180;52211;50.154;8.682;2023-02-12T16:20:21;102115.00;;;15.80
65569;BMP180;52211;50.154;8.682;2023-02-12T16:22:56;102114.00;;;15.80
65569;BMP180;52211;50.154;8.682;2023-02-12T16:25:32;102111.00;;;15.80
65569;BMP180;52211;50.154;8.682;2023-02-12T16:28:28;102100.00;;;15.70
65569;BMP180;52211;50.154;8.682;2023-02-12T16:31:13;102105.00;;;15.70
65569;BMP180;52211;50.154;8.682;2023-02-12T16:33:50;102112.00;;;15.70
65569;BMP180;52211;50.154;8.682;2023-02-12T16:41:49;102116.00;;;15.50
65569;BMP180;52211;50.154;8.682;2023-02-12T16:44:29;102115.00;;;15.50
65569;BMP180;52211;50.154;8.682;2023-02-12T16:46:59;102115.00;;;15.50
65569;BMP180;52211;50.154;8.682;2023-02-12T16:49:29;102118.00;;;15.50
65569;BMP180;52211;50.154;8.682;2023-02-12T16:52:30;102125.00;;;15.40
65569;BMP180;52211;50.154;8.682;2023-02-12T16:55:05;102125.00;;;15.40
65569;BMP180;52211;50.154;8.682;2023-02-12T16:57:37;102122.00;;;15.40
65569;BMP180;52211;50.154;8.682;2023-02-12T17:00:08;102122.00;;;15.40
65569;BMP180;52211;50.154;8.682;2023-02-12T17:02:36;102125.00;;;15.40
65569;BMP180;52211;50.154;8.682;2023-02-12T17:05:09;102127.00;;;15.40
65569;BMP180;52211;50.154;8.682;2023-02-12T17:07:41;102137.00;;;15.40
65569;BMP180;52211;50.154;8.682;2023-02-12T17:10:15;102126.00;;;15.40
65569;BMP180;52211;50.154;8.682;2023-02-12T17:12:53;102138.00;;;15.30
65569;BMP180;52211;50.154;8.682;2023-02-12T17:15:36;102140.00;;;15.30
65569;BMP180;52211;50.154;8.682;2023-02-12T17:18:04;102138.00;;;15.30